»·PEaware :: SWA9035 KPDX-KMFR

SWA9035 :: KPDX-KMFR

FLIGHT INFORMATION

Flight Status: Arrived
Operator:
Southwest Airlines
More flights by this operator :: More flights under this callsign
Pilot: Tim K. (2)
Aircraft: BOEING 737-200
(B732)
More flights by this aircraft type
Origin: KPDX Portland Intl
United States
Destination: KMFR Rogue Valley Intl-Medford
United States
More flights between these airports :: More routes between these airports
Route: +PTLD1 BTG J1 OED
File this flight plan on PilotEdge
Remarks:
Altitude:
(Current/Filed)
27,000ft
Speed:
(Current/Filed)
400kts
Departed: 12-Jan-18 08:43 PM
Arrived: 12-Jan-18 09:22 PM
Distance/Time
Traveled:
194nm/0:39
Distance/Time
To Go:
Arrived

Flight Plot

Page will automatically refresh every two minutes.

Flight plan parsing failed; only flown route is shown


Map Options




Map Legend


Flown Route
Filed Route
Departure Airport
Arrival Airport
Navaid (VOR, NDB)
Fix

Horizontal Profiles

Position Reports

Time Latitude Longitude Heading Altitude Ground
Speed
12-Jan-18 20:32 45.588825 -122.597419 27 38ft 0kts
12-Jan-18 20:33 45.588825 -122.597419 27 38ft 0kts
12-Jan-18 20:34 45.588825 -122.597419 27 38ft 0kts
12-Jan-18 20:35 45.588825 -122.597419 27 38ft 0kts
12-Jan-18 20:36 45.588825 -122.597419 27 38ft 0kts
12-Jan-18 20:37 45.588825 -122.597419 27 38ft 0kts
12-Jan-18 20:38 45.588825 -122.597419 27 38ft 0kts
12-Jan-18 20:39 45.588825 -122.597419 27 38ft 0kts
12-Jan-18 20:40 45.588514 -122.597656 23 38ft 1kts
12-Jan-18 20:41 45.588327 -122.597490 297 38ft 0kts
12-Jan-18 20:42 45.588327 -122.597490 297 38ft 0kts
12-Jan-18 20:43 45.588328 -122.597491 297 38ft 0kts
12-Jan-18 20:44 45.588268 -122.598305 255 38ft 15kts
12-Jan-18 20:45 45.590772 -122.605809 312 38ft 23kts
12-Jan-18 20:46 45.594350 -122.614734 299 38ft 29kts
12-Jan-18 20:47 45.596018 -122.620537 218 38ft 0kts
12-Jan-18 20:48 45.596018 -122.620537 218 38ft 0kts
12-Jan-18 20:49 45.590157 -122.608458 117 39ft 142kts
12-Jan-18 20:50 45.564440 -122.551567 119 3254ft 188kts
12-Jan-18 20:51 45.525452 -122.523816 202 5684ft 244kts
12-Jan-18 20:52 45.465270 -122.578601 215 7906ft 277kts
12-Jan-18 20:53 45.394638 -122.624276 190 10210ft 309kts
12-Jan-18 20:54 45.302768 -122.634873 191 12087ft 338kts
12-Jan-18 20:55 45.195239 -122.646055 191 14345ft 351kts
12-Jan-18 20:56 45.113999 -122.654159 190 15832ft 358kts
12-Jan-18 20:57 45.013468 -122.664162 189 17346ft 370kts
12-Jan-18 20:58 44.910217 -122.674213 188 18785ft 378kts
12-Jan-18 20:59 44.807863 -122.684262 188 20010ft 385kts
12-Jan-18 21:00 44.701166 -122.694663 188 21141ft 392kts
12-Jan-18 21:01 44.593312 -122.704966 188 22141ft 398kts
12-Jan-18 21:02 44.484536 -122.715345 188 23048ft 403kts
12-Jan-18 21:03 44.372825 -122.726113 188 23901ft 407kts
12-Jan-18 21:04 44.259744 -122.736921 188 24644ft 412kts
12-Jan-18 21:05 44.146428 -122.747543 188 25307ft 416kts
12-Jan-18 21:06 44.031020 -122.758497 188 25909ft 420kts
12-Jan-18 21:07 43.914485 -122.771579 190 26465ft 423kts
12-Jan-18 21:08 43.806141 -122.784056 188 26902ft 427kts
12-Jan-18 21:09 43.688620 -122.796005 188 27336ft 429kts
12-Jan-18 21:10 43.569123 -122.807841 188 27434ft 431kts
12-Jan-18 21:11 43.452212 -122.819417 188 25194ft 416kts
12-Jan-18 21:12 43.340108 -122.830302 188 23028ft 402kts
12-Jan-18 21:13 43.230658 -122.841026 188 20892ft 389kts
12-Jan-18 21:14 43.125038 -122.851188 188 18815ft 376kts
12-Jan-18 21:15 43.022577 -122.861567 194 16785ft 363kts
12-Jan-18 21:16 42.930602 -122.907312 205 14748ft 348kts
12-Jan-18 21:17 42.846947 -122.953533 205 12942ft 337kts
12-Jan-18 21:18 42.768260 -122.997349 205 11553ft 296kts
12-Jan-18 21:19 42.708102 -123.061670 235 9966ft 273kts
12-Jan-18 21:20 42.644675 -123.090673 146 7519ft 276kts
12-Jan-18 21:21 42.604997 -123.006157 125 5959ft 243kts
12-Jan-18 21:22 42.556897 -122.969350 160 5000ft 154kts
12-Jan-18 21:23 42.518593 -122.948817 160 4182ft 154kts
12-Jan-18 21:24 42.478218 -122.927501 160 3295ft 154kts
12-Jan-18 21:25 42.439937 -122.907450 159 2471ft 147kts
12-Jan-18 21:26 42.403673 -122.888283 160 1706ft 131kts
12-Jan-18 21:27 42.372978 -122.872226 161 1324ft 68kts
12-Jan-18 21:28 42.368826 -122.872455 236 1324ft 10kts

Navigation Log

Ident Type
Flight plan parsing failed, navigation log unavailable